createdAt,value
2018-06-24T00:00:17.551Z,52.8
2018-06-24T00:01:07.373Z,52.8
2018-06-24T00:01:57.658Z,52.8
2018-06-24T00:02:47.187Z,52.8
2018-06-24T00:03:37.803Z,52.8
2018-06-24T00:04:27.853Z,52.8
2018-06-24T00:05:17.642Z,52.8
2018-06-24T00:06:07.987Z,52.8
2018-06-24T00:06:58.061Z,52.8
2018-06-24T00:07:47.555Z,52.7
2018-06-24T00:08:38.152Z,52.7
2018-06-24T00:09:27.674Z,52.7
2018-06-24T00:10:17.997Z,52.7
2018-06-24T00:11:08.368Z,52.7
2018-06-24T00:11:57.852Z,52.7
2018-06-24T00:12:48.475Z,52.7
2018-06-24T00:13:38.541Z,52.6
2018-06-24T00:14:28.362Z,52.6
2018-06-24T00:15:18.394Z,52.6
2018-06-24T00:16:08.160Z,52.6
2018-06-24T00:16:58.226Z,52.6
2018-06-24T00:17:48.850Z,52.6
2018-06-24T00:18:38.354Z,52.6
2018-06-24T00:19:28.150Z,52.6
2018-06-24T00:20:18.789Z,52.6
2018-06-24T00:21:09.111Z,52.6
2018-06-24T00:21:58.883Z,52.6
2018-06-24T00:22:48.661Z,52.5
2018-06-24T00:23:39.343Z,52.5
2018-06-24T00:24:29.349Z,52.5
2018-06-24T00:25:19.222Z,52.5
2018-06-24T00:26:09.523Z,52.5
2018-06-24T00:26:59.544Z,52.4
2018-06-24T00:27:49.586Z,52.4
2018-06-24T00:28:39.137Z,52.4
2018-06-24T00:29:29.817Z,52.4
2018-06-24T00:30:19.809Z,52.4
2018-06-24T00:36:10.042Z,52.3
2018-06-24T00:37:00.031Z,52.3
2018-06-24T00:37:50.110Z,52.3
2018-06-24T00:38:40.132Z,52.3
2018-06-24T00:39:30.215Z,52.3
2018-06-24T00:40:20.303Z,52.3
2018-06-24T00:41:10.612Z,52.3
2018-06-24T00:42:00.391Z,52.3
2018-06-24T00:42:50.727Z,52.3
2018-06-24T00:43:40.542Z,52.3
2018-06-24T00:44:30.863Z,52.2
2018-06-24T00:45:20.915Z,52.2
2018-06-24T00:46:11.010Z,52.2
2018-06-24T00:47:01.061Z,52.2
2018-06-24T00:47:51.131Z,52.2
2018-06-24T00:48:41.153Z,52.1
2018-06-24T00:49:31.245Z,52.1
2018-06-24T00:50:21.034Z,52.1
2018-06-24T00:51:11.072Z,52.1
2018-06-24T00:52:01.148Z,52.1
2018-06-24T00:52:51.493Z,52.1
2018-06-24T00:53:41.552Z,52.1
2018-06-24T00:54:31.059Z,52.1
2018-06-24T00:55:21.365Z,52.1
2018-06-24T00:56:11.446Z,52.1
2018-06-24T00:57:01.796Z,52.1
2018-06-24T00:57:51.607Z,52.1
2018-06-24T00:58:41.629Z,52.1
2018-06-24T00:59:31.678Z,52
2018-06-24T01:00:21.772Z,52
2018-06-24T01:01:12.109Z,52
2018-06-24T01:02:02.181Z,52
2018-06-24T01:02:51.678Z,52
2018-06-24T01:07:02.008Z,51.9
2018-06-24T01:07:52.635Z,51.9
2018-06-24T01:08:42.390Z,51.9
2018-06-24T01:09:32.190Z,51.9
2018-06-24T01:10:22.248Z,51.9
2018-06-24T01:11:12.350Z,51.9
2018-06-24T01:12:02.101Z,51.9
2018-06-24T01:12:52.731Z,51.8
2018-06-24T01:13:42.476Z,51.8
2018-06-24T01:14:32.835Z,51.8
2018-06-24T01:15:23.192Z,51.8
2018-06-24T01:16:12.668Z,51.8
2018-06-24T01:17:02.755Z,51.8
2018-06-24T01:17:53.382Z,51.8
2018-06-24T01:18:43.401Z,51.8
2018-06-24T01:19:33.540Z,51.8
2018-06-24T01:20:23.296Z,51.8
2018-06-24T01:21:13.344Z,51.8
2018-06-24T01:22:03.421Z,51.7
2018-06-24T01:22:53.742Z,51.7
2018-06-24T01:23:43.786Z,51.7
2018-06-24T01:24:33.863Z,51.7
2018-06-24T01:25:23.909Z,51.7
2018-06-24T01:26:13.693Z,51.7
2018-06-24T01:27:03.736Z,51.6
2018-06-24T01:27:53.861Z,51.6
2018-06-24T01:28:43.349Z,51.6
2018-06-24T01:29:34.253Z,51.6
2018-06-24T01:30:23.421Z,51.6
2018-06-24T01:31:13.832Z,51.6
2018-06-24T01:32:04.155Z,51.6
2018-06-24T01:32:54.223Z,51.6
2018-06-24T01:33:44.539Z,51.6
2018-06-24T01:34:34.602Z,51.6
2018-06-24T01:35:23.836Z,51.6
2018-06-24T01:36:14.745Z,51.5
2018-06-24T01:37:04.309Z,51.5
2018-06-24T01:37:54.599Z,51.5
2018-06-24T01:38:44.918Z,51.5
2018-06-24T01:39:34.721Z,51.5
2018-06-24T01:40:25.081Z,51.4
2018-06-24T01:41:15.143Z,51.4
2018-06-24T01:42:04.883Z,51.4
2018-06-24T01:42:55.203Z,51.4
2018-06-24T01:43:45.297Z,51.4
2018-06-24T01:44:35.107Z,51.4
2018-06-24T01:45:25.412Z,51.4
2018-06-24T01:46:15.490Z,51.4
2018-06-24T01:47:05.572Z,51.4
2018-06-24T01:47:55.574Z,51.4
2018-06-24T01:48:45.673Z,51.4
2018-06-24T01:49:35.243Z,51.4
2018-06-24T01:50:25.777Z,51.3
2018-06-24T01:51:15.588Z,51.4
2018-06-24T01:52:05.372Z,51.3
2018-06-24T01:52:55.132Z,51.3
2018-06-24T01:53:44.941Z,51.3
2018-06-24T01:54:35.308Z,51.3
2018-06-24T01:55:25.923Z,51.3
2018-06-24T01:56:16.230Z,51.3
2018-06-24T01:57:05.731Z,51.3
2018-06-24T01:57:56.084Z,51.3
2018-06-24T01:58:46.123Z,51.3
2018-06-24T01:59:36.205Z,51.3
2018-06-24T02:00:25.758Z,51.2
2018-06-24T02:01:16.587Z,51.2
2018-06-24T02:02:06.361Z,51.2
2018-06-24T02:02:56.768Z,51.2
2018-06-24T02:03:46.222Z,51.2
2018-06-24T02:04:36.603Z,51.2
2018-06-24T02:05:26.066Z,51.2
2018-06-24T02:06:16.706Z,51.1
2018-06-24T02:07:07.064Z,51.1
2018-06-24T02:07:56.249Z,51.1
2018-06-24T02:08:47.157Z,51.1
2018-06-24T02:09:36.644Z,51.1
2018-06-24T02:10:26.736Z,51.1
2018-06-24T02:11:17.074Z,51.1
2018-06-24T02:12:07.155Z,51.1
2018-06-24T02:12:57.247Z,51.1
2018-06-24T02:13:47.543Z,51.1
2018-06-24T02:14:37.637Z,51.1
2018-06-24T02:15:27.649Z,51.1
2018-06-24T02:16:17.736Z,51
2018-06-24T02:17:07.781Z,51
2018-06-24T02:17:57.825Z,51
2018-06-24T02:18:47.616Z,50.9
2018-06-24T02:19:37.986Z,50.9
2018-06-24T02:20:28.013Z,50.9
2018-06-24T02:21:17.817Z,50.9
2018-06-24T02:22:08.183Z,50.9
2018-06-24T02:22:57.943Z,50.9
2018-06-24T02:23:48.284Z,50.9
2018-06-24T02:24:38.076Z,50.9
2018-06-24T02:25:27.926Z,50.9
2018-06-24T02:26:18.463Z,50.9
2018-06-24T02:27:07.970Z,50.9
2018-06-24T02:27:58.600Z,50.9
2018-06-24T02:28:48.648Z,50.9
2018-06-24T02:29:38.442Z,50.9
2018-06-24T02:30:28.528Z,50.8
2018-06-24T02:31:18.556Z,50.8
2018-06-24T02:32:08.092Z,50.8
2018-06-24T02:32:58.403Z,50.8
2018-06-24T02:33:48.764Z,50.8
2018-06-24T02:34:38.258Z,50.8
2018-06-24T02:35:28.920Z,50.8
2018-06-24T02:36:18.658Z,50.8
2018-06-24T02:37:09.250Z,50.8
2018-06-24T02:37:58.782Z,50.8
2018-06-24T02:38:49.168Z,50.8
2018-06-24T02:39:39.196Z,50.7
2018-06-24T02:40:29.509Z,50.7
2018-06-24T02:41:19.027Z,50.7
2018-06-24T02:42:09.642Z,50.7
2018-06-24T02:42:59.708Z,50.7
2018-06-24T02:43:49.509Z,50.7
2018-06-24T02:44:39.831Z,50.7
2018-06-24T02:45:29.634Z,50.6
2018-06-24T02:46:19.989Z,50.6
2018-06-24T02:47:09.730Z,50.6
2018-06-24T02:47:59.571Z,50.6
2018-06-24T02:48:50.176Z,50.6
2018-06-24T02:49:40.250Z,50.6
2018-06-24T02:50:30.357Z,50.6
2018-06-24T02:51:19.787Z,50.6
2018-06-24T02:52:10.123Z,50.6
2018-06-24T02:52:59.923Z,50.6
2018-06-24T02:53:50.929Z,50.6
2018-06-24T02:54:40.339Z,50.6
2018-06-24T02:55:30.459Z,50.5
2018-06-24T02:56:20.736Z,50.5
2018-06-24T02:57:10.786Z,50.5
2018-06-24T02:58:00.545Z,50.5
2018-06-24T02:58:50.906Z,50.5
2018-06-24T02:59:40.727Z,50.5
2018-06-24T03:00:30.750Z,50.4
2018-06-24T03:01:20.243Z,50.4
2018-06-24T03:02:11.164Z,50.4
2018-06-24T03:03:00.402Z,50.4
2018-06-24T03:03:51.006Z,50.4
2018-06-24T03:04:41.054Z,50.4
2018-06-24T03:05:30.869Z,50.4
2018-06-24T03:06:20.686Z,50.4
2018-06-24T03:07:11.268Z,50.4
2018-06-24T03:08:01.640Z,50.3
2018-06-24T03:08:50.805Z,50.4
2018-06-24T03:09:41.458Z,50.4
2018-06-24T03:10:31.596Z,50.4
2018-06-24T03:11:21.853Z,50.3
2018-06-24T03:12:11.368Z,50.3
2018-06-24T03:13:01.997Z,50.3
2018-06-24T03:13:52.025Z,50.3
2018-06-24T03:14:41.518Z,50.3
2018-06-24T03:15:32.179Z,50.3
2018-06-24T03:16:21.651Z,50.3
2018-06-24T03:17:12.291Z,50.3
2018-06-24T03:18:02.065Z,50.3
2018-06-24T03:18:52.325Z,50.3
2018-06-24T03:19:42.490Z,50.3
2018-06-24T03:20:32.237Z,50.3
2018-06-24T03:21:22.072Z,50.2
2018-06-24T03:22:12.620Z,50.2
2018-06-24T03:23:02.209Z,50.2
2018-06-24T03:23:51.914Z,50.2
2018-06-24T03:24:42.285Z,50.2
2018-06-24T03:25:33.068Z,50.2
2018-06-24T03:26:22.390Z,50.2
2018-06-24T03:27:12.994Z,50.1
2018-06-24T03:28:03.074Z,50.1
2018-06-24T03:28:53.093Z,50.1
2018-06-24T03:29:42.623Z,50.1
2018-06-24T03:30:33.331Z,50.1
2018-06-24T03:31:22.761Z,50.1
2018-06-24T03:32:12.859Z,50.1
2018-06-24T03:33:03.467Z,50.1
2018-06-24T03:33:53.482Z,50.1
2018-06-24T03:34:43.538Z,50
2018-06-24T03:35:33.619Z,50
2018-06-24T03:36:23.705Z,49.9
2018-06-24T03:37:13.464Z,49.9
2018-06-24T03:38:03.811Z,49.8
2018-06-24T03:38:53.871Z,49.8
2018-06-24T03:39:43.910Z,49.8
2018-06-24T03:40:33.992Z,49.8
2018-06-24T03:41:24.086Z,49.8
2018-06-24T03:42:14.121Z,49.7
2018-06-24T03:43:04.193Z,49.7
2018-06-24T03:43:54.247Z,49.7
2018-06-24T03:44:44.011Z,49.6
2018-06-24T03:45:34.348Z,49.6
2018-06-24T03:46:23.885Z,49.7
2018-06-24T03:47:14.250Z,49.6
2018-06-24T03:48:04.567Z,49.6
2018-06-24T03:48:54.668Z,49.6
2018-06-24T03:49:44.441Z,49.6
2018-06-24T03:50:34.776Z,49.6
2018-06-24T03:51:24.263Z,49.6
2018-06-24T03:52:14.605Z,49.6
2018-06-24T03:53:04.979Z,49.6
2018-06-24T03:53:54.765Z,49.6
2018-06-24T03:54:44.807Z,49.6
2018-06-24T03:55:34.871Z,49.6
2018-06-24T03:56:24.640Z,49.5
2018-06-24T03:57:14.963Z,49.5
2018-06-24T03:58:05.341Z,49.5
2018-06-24T03:58:54.548Z,49.5
2018-06-24T03:59:45.426Z,49.5
2018-06-24T04:00:34.930Z,49.5
2018-06-24T04:01:25.276Z,49.4
2018-06-24T04:02:14.778Z,49.4
2018-06-24T04:03:05.684Z,49.4
2018-06-24T04:03:55.764Z,49.4
2018-06-24T04:04:45.963Z,49.4
2018-06-24T04:05:35.335Z,49.4
2018-06-24T04:06:25.427Z,49.4
2018-06-24T04:07:16.020Z,49.4
2018-06-24T04:08:06.119Z,49.4
2018-06-24T04:08:55.852Z,49.4
2018-06-24T04:09:46.199Z,49.4
2018-06-24T04:10:36.263Z,49.4
2018-06-24T04:11:26.348Z,49.4
2018-06-24T04:12:15.802Z,49.3
2018-06-24T04:13:05.601Z,49.3
2018-06-24T04:13:56.482Z,49.3
2018-06-24T04:14:46.283Z,49.3
2018-06-24T04:15:36.092Z,49.3
2018-06-24T04:16:26.164Z,49.3
2018-06-24T04:17:16.174Z,49.3
2018-06-24T04:18:06.556Z,49.3
2018-06-24T04:18:56.841Z,49.3
2018-06-24T04:19:46.681Z,49.3
2018-06-24T04:20:36.723Z,49.3
2018-06-24T04:21:27.040Z,49.3
2018-06-24T04:22:16.929Z,49.2
2018-06-24T04:23:06.632Z,49.2
2018-06-24T04:23:56.936Z,49.2
2018-06-24T04:24:47.031Z,49.2
2018-06-24T04:25:37.566Z,49.2
2018-06-24T04:26:27.415Z,49.2
2018-06-24T04:27:17.478Z,49.1
2018-06-24T04:28:07.548Z,49.1
2018-06-24T04:28:57.624Z,49.1
2018-06-24T04:29:47.656Z,49.1
2018-06-24T04:30:37.764Z,49.1
2018-06-24T04:31:27.515Z,49.1
2018-06-24T04:32:17.922Z,49.1
2018-06-24T04:33:07.400Z,49.1
2018-06-24T04:33:57.692Z,49.1
2018-06-24T04:34:47.528Z,49.1
2018-06-24T04:35:38.181Z,49.1
2018-06-24T04:36:27.884Z,49
2018-06-24T04:37:17.409Z,49
2018-06-24T04:38:08.289Z,49
2018-06-24T04:38:58.418Z,49
2018-06-24T04:39:48.477Z,49
2018-06-24T04:40:38.224Z,49
2018-06-24T04:41:28.561Z,48.9
2018-06-24T04:42:17.799Z,48.9
2018-06-24T04:43:07.844Z,48.9
2018-06-24T04:43:58.445Z,48.9
2018-06-24T04:44:48.797Z,48.9
2018-06-24T04:45:38.857Z,48.9
2018-06-24T04:46:28.936Z,48.9
2018-06-24T04:47:18.992Z,48.9
2018-06-24T04:48:08.837Z,48.9
2018-06-24T04:48:59.129Z,48.9
2018-06-24T04:49:49.191Z,48.9
2018-06-24T04:50:39.241Z,48.9
2018-06-24T04:51:29.017Z,48.8
2018-06-24T04:52:19.071Z,48.8
2018-06-24T04:53:09.419Z,48.8
2018-06-24T04:53:59.172Z,48.8
2018-06-24T04:54:48.710Z,48.8
2018-06-24T04:55:39.619Z,48.8
2018-06-24T04:56:29.682Z,48.8
2018-06-24T04:57:19.764Z,48.8
2018-06-24T04:58:09.516Z,48.8
2018-06-24T04:58:59.844Z,48.8
2018-06-24T04:59:49.654Z,48.8
2018-06-24T05:00:39.991Z,48.8
2018-06-24T05:01:30.071Z,48.8
2018-06-24T05:02:19.262Z,48.7
2018-06-24T05:03:09.888Z,48.7
2018-06-24T05:03:59.959Z,48.7
2018-06-24T05:04:50.316Z,48.7
2018-06-24T05:05:40.420Z,48.7
2018-06-24T05:06:30.628Z,48.7
2018-06-24T05:07:20.480Z,48.7
2018-06-24T05:08:10.259Z,48.7
2018-06-24T05:09:00.047Z,48.6
2018-06-24T05:09:50.128Z,48.6
2018-06-24T05:10:40.751Z,48.6
2018-06-24T05:11:30.528Z,48.6
2018-06-24T05:12:20.846Z,48.6
2018-06-24T05:13:10.916Z,48.6
2018-06-24T05:14:00.231Z,48.6
2018-06-24T05:14:51.100Z,48.6
2018-06-24T05:15:41.135Z,48.6
2018-06-24T05:16:31.176Z,48.6
2018-06-24T05:17:20.965Z,48.6
2018-06-24T05:18:11.011Z,48.6
2018-06-24T05:19:00.819Z,48.5
2018-06-24T05:19:51.123Z,48.5
2018-06-24T05:20:41.510Z,48.5
2018-06-24T05:21:31.547Z,48.5
2018-06-24T05:22:21.349Z,48.5
2018-06-24T05:23:11.124Z,48.5
2018-06-24T05:24:01.721Z,48.5
2018-06-24T05:24:51.792Z,48.4
2018-06-24T05:25:41.839Z,48.4
2018-06-24T05:26:31.688Z,48.4
2018-06-24T05:27:21.418Z,48.4
2018-06-24T05:28:11.784Z,48.4
2018-06-24T05:29:01.838Z,48.4
2018-06-24T05:29:51.909Z,48.4
2018-06-24T05:30:41.953Z,48.4
2018-06-24T05:31:31.743Z,48.4
2018-06-24T05:32:22.074Z,48.4
2018-06-24T05:33:12.431Z,48.4
2018-06-24T05:34:02.490Z,48.4
2018-06-24T05:34:52.006Z,48.4
2018-06-24T05:35:42.587Z,48.4
2018-06-24T05:36:32.659Z,48.4
2018-06-24T05:37:22.197Z,48.3
2018-06-24T05:38:12.810Z,48.3
2018-06-24T05:39:02.863Z,48.3
2018-06-24T05:39:52.475Z,48.3
2018-06-24T05:40:42.973Z,48.3
2018-06-24T05:41:32.738Z,48.3
2018-06-24T05:42:23.136Z,48.3
2018-06-24T05:43:13.489Z,48.3
2018-06-24T05:44:02.931Z,48.3
2018-06-24T05:44:52.786Z,48.3
2018-06-24T05:45:43.394Z,48.3
2018-06-24T05:46:33.185Z,48.3
2018-06-24T05:47:23.473Z,48.3
2018-06-24T05:48:13.559Z,48.2
2018-06-24T05:49:03.611Z,48.2
2018-06-24T05:49:53.130Z,48.2
2018-06-24T05:50:43.773Z,48.2
2018-06-24T05:51:33.521Z,48.2
2018-06-24T05:52:23.024Z,48.2
2018-06-24T05:53:13.370Z,48.2
2018-06-24T05:54:03.710Z,48.2
2018-06-24T05:54:54.039Z,48.1
2018-06-24T05:55:43.826Z,48.1
2018-06-24T05:56:34.151Z,48.1
2018-06-24T05:57:24.226Z,48.1
2018-06-24T05:58:14.014Z,48.1
2018-06-24T05:59:04.349Z,48.1
2018-06-24T05:59:54.136Z,48.1
2018-06-24T06:00:44.471Z,48.1
2018-06-24T06:01:34.515Z,48.1
2018-06-24T06:02:24.622Z,48.1
2018-06-24T06:03:14.441Z,48.1
2018-06-24T06:04:04.776Z,48.1
2018-06-24T06:04:54.793Z,48
2018-06-24T06:05:44.602Z,48
2018-06-24T06:06:34.938Z,48
2018-06-24T06:07:24.725Z,48
2018-06-24T06:08:15.026Z,48
2018-06-24T06:09:05.120Z,48
2018-06-24T06:09:54.627Z,47.9
2018-06-24T06:10:45.039Z,48
2018-06-24T06:11:35.322Z,47.9
2018-06-24T06:12:25.096Z,47.9
2018-06-24T06:13:15.452Z,47.9
2018-06-24T06:14:05.231Z,47.9
2018-06-24T06:14:55.628Z,47.9
2018-06-24T06:15:45.351Z,47.9
2018-06-24T06:16:35.684Z,47.9
2018-06-24T06:17:25.727Z,47.9
2018-06-24T06:18:15.791Z,47.9
2018-06-24T06:19:05.563Z,47.9
2018-06-24T06:19:55.916Z,47.9
2018-06-24T06:20:45.734Z,47.9
2018-06-24T06:21:36.049Z,47.9
2018-06-24T06:22:26.116Z,47.8
2018-06-24T06:23:15.875Z,47.8
2018-06-24T06:24:06.309Z,47.8
2018-06-24T06:24:55.785Z,47.8
2018-06-24T06:25:46.357Z,47.8
2018-06-24T06:26:36.425Z,47.8
2018-06-24T06:27:26.492Z,47.8
2018-06-24T06:28:16.248Z,47.8
2018-06-24T06:29:06.362Z,47.8
2018-06-24T06:29:56.202Z,47.8
2018-06-24T06:30:46.460Z,47.8
2018-06-24T06:31:36.794Z,47.8
2018-06-24T06:32:26.588Z,47.8
2018-06-24T06:33:16.411Z,47.7
2018-06-24T06:34:06.441Z,47.7
2018-06-24T06:34:56.490Z,47.8
2018-06-24T06:35:47.106Z,47.7
2018-06-24T06:36:36.912Z,47.7
2018-06-24T06:37:27.258Z,47.7
2018-06-24T06:38:17.296Z,47.7
2018-06-24T06:39:06.316Z,47.7
2018-06-24T06:39:57.453Z,47.6
2018-06-24T06:40:47.481Z,47.6
2018-06-24T06:41:37.276Z,47.6
2018-06-24T06:42:27.065Z,47.6
2018-06-24T06:43:17.381Z,47.6
2018-06-24T06:44:07.469Z,47.6
2018-06-24T06:44:58.729Z,47.6
2018-06-24T06:45:50.071Z,47.6
2018-06-24T06:46:37.350Z,47.6
2018-06-24T06:47:27.719Z,47.6
2018-06-24T06:48:18.085Z,47.6
2018-06-24T06:49:08.100Z,47.6
2018-06-24T06:49:57.335Z,47.6
2018-06-24T06:50:48.261Z,47.5
2018-06-24T06:51:38.293Z,47.6
2018-06-24T06:52:27.853Z,47.5
2018-06-24T06:53:17.482Z,47.4
2018-06-24T06:54:08.498Z,47.4
2018-06-24T06:54:58.579Z,47.4
2018-06-24T06:55:47.795Z,47.3
2018-06-24T06:56:37.844Z,47.3
2018-06-24T06:57:27.782Z,47.3
2018-06-24T06:58:18.817Z,47.2
2018-06-24T06:59:08.315Z,47.1
2018-06-24T06:59:58.992Z,47.1
2018-06-24T07:00:49.013Z,47.1
2018-06-24T07:01:38.610Z,47.1
2018-06-24T07:02:29.112Z,47.1
2018-06-24T07:03:19.607Z,47.1
2018-06-24T07:04:09.244Z,47.1
2018-06-24T07:04:58.755Z,47.1
2018-06-24T07:05:49.417Z,47
2018-06-24T07:06:39.465Z,47
2018-06-24T07:07:29.525Z,47.1
2018-06-24T07:08:19.618Z,47.1
2018-06-24T07:09:09.613Z,47
2018-06-24T07:09:59.683Z,47.1
2018-06-24T07:10:49.786Z,47
2018-06-24T07:11:39.101Z,47
2018-06-24T07:12:29.617Z,47
2018-06-24T07:13:19.694Z,47
2018-06-24T07:14:09.444Z,47
2018-06-24T07:14:59.776Z,46.9
2018-06-24T07:15:50.212Z,46.9
2018-06-24T07:16:39.365Z,46.9
2018-06-24T07:17:30.288Z,46.9
2018-06-24T07:18:19.634Z,46.9
2018-06-24T07:19:10.161Z,46.9
2018-06-24T07:19:59.903Z,46.9
2018-06-24T07:20:50.293Z,46.9
2018-06-24T07:21:40.363Z,46.9
2018-06-24T07:22:30.163Z,46.9
2018-06-24T07:23:19.625Z,46.9
2018-06-24T07:24:09.744Z,46.9
2018-06-24T07:24:59.733Z,46.8
2018-06-24T07:25:50.876Z,46.8
2018-06-24T07:26:40.968Z,46.8
2018-06-24T07:27:31.020Z,46.8
2018-06-24T07:28:21.075Z,46.8
2018-06-24T07:29:10.305Z,46.8
2018-06-24T07:30:00.931Z,46.8
2018-06-24T07:30:51.304Z,46.8
2018-06-24T07:31:41.354Z,46.8
2018-06-24T07:32:31.417Z,46.8
2018-06-24T07:33:21.584Z,46.7
2018-06-24T07:34:11.261Z,46.7
2018-06-24T07:35:01.682Z,46.7
2018-06-24T07:35:51.693Z,46.7
2018-06-24T07:36:41.704Z,46.7
2018-06-24T07:37:31.532Z,46.7
2018-06-24T07:38:21.291Z,46.7
2018-06-24T07:39:12.339Z,46.7
2018-06-24T07:40:01.733Z,46.6
2018-06-24T07:40:51.759Z,46.6
2018-06-24T07:41:41.811Z,46.6
2018-06-24T07:42:32.143Z,46.6
2018-06-24T07:43:21.716Z,46.6
2018-06-24T07:44:12.264Z,46.6
2018-06-24T07:45:02.056Z,46.6
2018-06-24T07:45:52.126Z,46.6
2018-06-24T07:46:41.982Z,46.6
2018-06-24T07:47:32.262Z,46.5
2018-06-24T07:48:22.133Z,46.5
2018-06-24T07:49:12.089Z,46.4
2018-06-24T07:50:01.971Z,46.4
2018-06-24T07:50:52.253Z,46.3
2018-06-24T07:51:42.330Z,46.3
2018-06-24T07:52:32.933Z,46.2
2018-06-24T07:53:22.703Z,46.2
2018-06-24T07:54:13.032Z,46.1
2018-06-24T07:55:02.837Z,46.1
2018-06-24T07:55:53.139Z,46.1
2018-06-24T07:56:43.214Z,46.1
2018-06-24T07:57:33.376Z,46.1
2018-06-24T07:58:23.333Z,46.1
2018-06-24T07:59:13.436Z,46.1
2018-06-24T08:00:03.184Z,46.2
2018-06-24T08:00:53.560Z,46.2
2018-06-24T08:01:43.350Z,46.3
2018-06-24T08:02:33.090Z,46.4
2018-06-24T08:03:24.408Z,46.4
2018-06-24T08:04:13.304Z,46.4
2018-06-24T08:05:03.314Z,46.5
2018-06-24T08:05:53.902Z,46.6
2018-06-24T08:06:43.983Z,46.6
2018-06-24T08:07:34.050Z,46.7
2018-06-24T08:08:24.108Z,46.8
2018-06-24T08:09:13.621Z,46.8
2018-06-24T08:10:03.983Z,46.8
2018-06-24T08:10:54.018Z,46.9
2018-06-24T08:11:44.095Z,47
2018-06-24T08:12:34.398Z,46.9
2018-06-24T08:13:24.348Z,47
2018-06-24T08:14:13.992Z,47.1
2018-06-24T08:15:04.655Z,47.2
2018-06-24T08:15:54.098Z,47.3
2018-06-24T08:16:44.491Z,47.3
2018-06-24T08:17:34.797Z,47.4
2018-06-24T08:18:24.862Z,47.4
2018-06-24T08:19:14.389Z,47.6
2018-06-24T08:20:04.523Z,47.6
2018-06-24T08:20:55.053Z,47.7
2018-06-24T08:21:45.098Z,47.8
2018-06-24T08:22:34.926Z,47.9
2018-06-24T08:23:24.967Z,47.9
2018-06-24T08:24:15.066Z,48
2018-06-24T08:25:05.143Z,48.1
2018-06-24T08:25:55.145Z,48.1
2018-06-24T08:26:45.491Z,48.3
2018-06-24T08:27:34.833Z,48.3
2018-06-24T08:28:25.351Z,48.4
2018-06-24T08:29:14.393Z,48.4
2018-06-24T08:30:05.776Z,48.6
2018-06-24T08:30:55.814Z,48.7
2018-06-24T08:31:46.157Z,48.8
2018-06-24T08:32:35.694Z,48.8
2018-06-24T08:33:25.452Z,48.9
2018-06-24T08:34:16.075Z,48.9
2018-06-24T08:35:06.129Z,49
2018-06-24T08:35:55.950Z,49.1
2018-06-24T08:36:46.271Z,49.1
2018-06-24T08:37:36.037Z,49.2
2018-06-24T08:38:26.082Z,49.3
2018-06-24T08:39:16.184Z,49.3
2018-06-24T08:40:06.544Z,49.4
2018-06-24T08:40:56.042Z,49.5
2018-06-24T08:41:46.627Z,49.6
2018-06-24T08:42:36.733Z,49.7
2018-06-24T08:43:26.500Z,49.7
2018-06-24T08:44:16.825Z,49.8
2018-06-24T08:45:06.905Z,49.9
2018-06-24T08:45:56.408Z,50
2018-06-24T08:46:47.043Z,50.1
2018-06-24T08:47:37.142Z,50.1
2018-06-24T08:48:26.636Z,50.3
2018-06-24T08:49:17.292Z,50.3
2018-06-24T08:50:06.810Z,50.4
2018-06-24T08:50:57.327Z,50.5
2018-06-24T08:51:46.838Z,50.6
2018-06-24T08:52:36.912Z,50.7
2018-06-24T08:53:26.982Z,50.8
2018-06-24T08:54:17.612Z,50.9
2018-06-24T08:55:07.468Z,51
2018-06-24T08:55:57.203Z,51.1
2018-06-24T08:56:47.805Z,51.2
2018-06-24T08:57:37.578Z,51.3
2018-06-24T08:58:27.075Z,51.3
2018-06-24T08:59:17.745Z,51.4
2018-06-24T09:00:07.762Z,51.5
2018-06-24T09:00:58.105Z,51.6
2018-06-24T09:01:48.209Z,51.7
2018-06-24T09:02:37.939Z,51.8
2018-06-24T09:04:18.076Z,52
2018-06-24T09:05:08.450Z,52.1
2018-06-24T09:05:58.226Z,52.2
2018-06-24T09:06:47.487Z,52.3
2018-06-24T09:08:28.714Z,52.5
2018-06-24T09:09:18.732Z,52.6
2018-06-24T09:10:08.797Z,52.6
2018-06-24T09:10:58.885Z,52.7
2018-06-24T09:11:48.912Z,52.8
2018-06-24T09:12:38.757Z,52.9
2018-06-24T09:13:28.509Z,53
2018-06-24T09:14:18.686Z,53.1
